createdAt,value
2023-07-25T00:02:03.253Z,99406.30
2023-07-25T00:04:31.160Z,99414.86
2023-07-25T00:06:59.088Z,99413.05
2023-07-25T00:09:27.088Z,99410.27
2023-07-25T00:11:55.063Z,99413.90
2023-07-25T00:14:22.902Z,99413.88
2023-07-25T00:16:50.917Z,99415.52
2023-07-25T00:19:19.090Z,99412.77
2023-07-25T00:21:47.070Z,99414.49
2023-07-25T00:24:15.057Z,99419.40
2023-07-25T00:26:43.044Z,99423.96
2023-07-25T00:29:11.090Z,99431.52
2023-07-25T00:31:39.130Z,99433.61
2023-07-25T00:34:07.902Z,99438.73
2023-07-25T00:36:35.875Z,99437.48
2023-07-25T00:39:03.827Z,99430.17
2023-07-25T00:41:32.359Z,99425.87
2023-07-25T00:44:00.664Z,99420.60
2023-07-25T00:46:28.760Z,99422.75
2023-07-25T00:48:56.953Z,99417.39
2023-07-25T00:51:24.827Z,99424.67
2023-07-25T00:53:52.951Z,99423.10
2023-07-25T00:56:20.995Z,99423.15
2023-07-25T00:58:49.065Z,99422.04
2023-07-25T01:01:17.036Z,99422.83
2023-07-25T01:03:45.447Z,99425.27
2023-07-25T01:06:20.387Z,99427.00
2023-07-25T01:08:57.068Z,99431.21
2023-07-25T01:11:25.193Z,99430.30
2023-07-25T01:13:53.283Z,99426.27
2023-07-25T01:16:26.141Z,99427.23
2023-07-25T01:18:56.277Z,99431.24
2023-07-25T01:21:24.414Z,99433.84
2023-07-25T01:23:52.540Z,99437.27
2023-07-25T01:26:20.394Z,99441.86
2023-07-25T01:28:48.382Z,99445.23
2023-07-25T01:31:16.324Z,99445.63
2023-07-25T01:33:44.323Z,99448.34
2023-07-25T01:36:13.142Z,99443.81
2023-07-25T01:38:41.046Z,99445.92
2023-07-25T01:41:09.034Z,99447.58
2023-07-25T01:43:36.905Z,99439.90
2023-07-25T01:46:04.866Z,99435.70
2023-07-25T01:48:32.808Z,99436.12
2023-07-25T01:51:02.081Z,99442.63
2023-07-25T01:53:30.016Z,99445.84
2023-07-25T01:55:58.014Z,99445.63
2023-07-25T01:58:26.019Z,99448.77
2023-07-25T02:01:00.943Z,99461.84
2023-07-25T02:03:28.998Z,99465.67
2023-07-25T02:05:56.955Z,99466.18
2023-07-25T02:08:24.912Z,99473.45
2023-07-25T02:10:53.003Z,99471.35
2023-07-25T02:13:21.036Z,99474.70
2023-07-25T02:15:50.078Z,99468.36
2023-07-25T02:18:18.184Z,99472.23
2023-07-25T02:20:46.200Z,99467.75
2023-07-25T02:23:14.174Z,99470.96
2023-07-25T02:25:42.062Z,99477.37
2023-07-25T02:28:10.265Z,99481.16
2023-07-25T02:30:41.371Z,99480.05
2023-07-25T02:33:09.250Z,99480.49
2023-07-25T02:35:37.260Z,99484.89
2023-07-25T02:38:05.158Z,99488.10
2023-07-25T02:40:33.044Z,99496.31
2023-07-25T02:43:07.323Z,99505.84
2023-07-25T02:45:35.971Z,99506.53
2023-07-25T02:48:04.214Z,99502.24
2023-07-25T02:50:32.292Z,99501.38
2023-07-25T02:53:00.118Z,99500.23
2023-07-25T02:55:28.146Z,99507.61
2023-07-25T02:57:56.009Z,99505.39
2023-07-25T03:00:25.143Z,99503.59
2023-07-25T03:02:53.231Z,99504.09
2023-07-25T03:05:21.486Z,99504.41
2023-07-25T03:07:50.439Z,99508.72
2023-07-25T03:10:18.398Z,99504.34
2023-07-25T03:12:46.211Z,99509.39
2023-07-25T03:15:14.640Z,99509.61
2023-07-25T03:17:44.801Z,99512.21
2023-07-25T03:20:14.645Z,99523.27
2023-07-25T03:22:42.762Z,99526.95
2023-07-25T03:25:10.667Z,99525.75
2023-07-25T03:27:40.664Z,99523.17
2023-07-25T03:30:08.831Z,99521.11
2023-07-25T03:32:36.846Z,99525.61
2023-07-25T03:35:05.164Z,99521.45
2023-07-25T03:37:33.137Z,99518.55
2023-07-25T03:40:01.037Z,99518.67
2023-07-25T03:42:29.383Z,99513.02
2023-07-25T03:44:57.312Z,99517.10
2023-07-25T03:47:25.295Z,99520.43
2023-07-25T03:49:53.359Z,99515.48
2023-07-25T03:52:21.360Z,99519.45
2023-07-25T03:54:49.452Z,99519.58
2023-07-25T03:57:17.312Z,99520.23
2023-07-25T03:59:45.313Z,99520.60
2023-07-25T04:02:13.738Z,99523.23
2023-07-25T04:04:41.861Z,99528.73
2023-07-25T04:07:09.924Z,99529.54
2023-07-25T04:09:37.803Z,99529.13
2023-07-25T04:12:06.115Z,99536.09
2023-07-25T04:14:34.147Z,99535.36
2023-07-25T04:17:02.010Z,99540.12
2023-07-25T04:19:30.162Z,99544.11
2023-07-25T04:21:58.100Z,99541.11
2023-07-25T04:24:26.070Z,99543.90
2023-07-25T04:26:53.963Z,99548.50
2023-07-25T04:29:21.912Z,99548.60
2023-07-25T04:31:49.836Z,99556.16
2023-07-25T04:34:17.694Z,99562.09
2023-07-25T04:36:45.692Z,99562.33
2023-07-25T04:39:13.611Z,99560.73
2023-07-25T04:41:41.654Z,99563.94
2023-07-25T04:44:09.704Z,99558.34
2023-07-25T04:46:37.752Z,99557.14
2023-07-25T04:49:08.100Z,99555.56
2023-07-25T04:51:36.044Z,99558.30
2023-07-25T04:54:04.126Z,99558.09
2023-07-25T04:56:32.155Z,99564.98
2023-07-25T04:59:00.095Z,99569.59
2023-07-25T05:01:28.053Z,99572.33
2023-07-25T05:03:55.971Z,99581.73
2023-07-25T05:06:23.987Z,99584.32
2023-07-25T05:08:51.900Z,99581.66
2023-07-25T05:11:19.825Z,99575.19
2023-07-25T05:13:48.093Z,99578.17
2023-07-25T05:16:16.122Z,99577.65
2023-07-25T05:18:43.976Z,99576.52
2023-07-25T05:21:11.809Z,99571.48
2023-07-25T05:23:39.693Z,99567.29
2023-07-25T05:26:08.560Z,99562.30
2023-07-25T05:28:36.452Z,99567.02
2023-07-25T05:31:04.992Z,99572.23
2023-07-25T05:33:33.024Z,99571.77
2023-07-25T05:36:04.410Z,99577.92
2023-07-25T05:38:32.397Z,99577.73
2023-07-25T05:41:00.743Z,99575.14
2023-07-25T05:43:28.636Z,99579.21
2023-07-25T05:45:56.604Z,99574.30
2023-07-25T05:48:24.498Z,99573.14
2023-07-25T05:50:53.419Z,99577.31
2023-07-25T05:53:21.331Z,99584.23
2023-07-25T05:55:49.361Z,99584.56
2023-07-25T05:58:17.931Z,99591.88
2023-07-25T06:00:46.544Z,99600.10
2023-07-25T06:03:15.920Z,99605.88
2023-07-25T06:05:44.040Z,99600.32
2023-07-25T06:08:12.017Z,99598.55
2023-07-25T06:10:40.608Z,99601.00
2023-07-25T06:13:08.504Z,99604.12
2023-07-25T06:15:36.583Z,99611.35
2023-07-25T06:18:05.770Z,99614.40
2023-07-25T06:20:34.585Z,99610.76
2023-07-25T06:23:03.143Z,99620.66
2023-07-25T06:25:31.233Z,99628.10
2023-07-25T06:27:59.202Z,99627.92
2023-07-25T06:30:27.229Z,99619.31
2023-07-25T06:32:55.727Z,99619.53
2023-07-25T06:35:23.914Z,99620.70
2023-07-25T06:37:51.759Z,99616.08
2023-07-25T06:40:19.696Z,99613.96
2023-07-25T06:42:47.686Z,99622.36
2023-07-25T06:45:18.161Z,99628.48
2023-07-25T06:47:46.170Z,99633.27
2023-07-25T06:50:14.143Z,99631.35
2023-07-25T06:52:42.026Z,99630.40
2023-07-25T06:55:10.193Z,99630.71
2023-07-25T06:57:38.007Z,99638.09
2023-07-25T07:00:09.273Z,99647.10
2023-07-25T07:02:37.398Z,99650.17
2023-07-25T07:05:19.300Z,99652.10
2023-07-25T07:07:54.500Z,99653.53
2023-07-25T07:10:22.349Z,99650.62
2023-07-25T07:12:50.261Z,99649.11
2023-07-25T07:15:18.752Z,99648.83
2023-07-25T07:17:46.818Z,99656.02
2023-07-25T07:20:14.732Z,99655.09
2023-07-25T07:22:42.550Z,99660.21
2023-07-25T07:25:10.646Z,99663.95
2023-07-25T07:27:38.548Z,99664.29
2023-07-25T07:30:07.255Z,99658.48
2023-07-25T07:32:35.277Z,99665.38
2023-07-25T07:35:03.291Z,99661.02
2023-07-25T07:37:32.517Z,99658.95
2023-07-25T07:40:02.382Z,99660.56
2023-07-25T07:42:30.456Z,99666.21
2023-07-25T07:44:58.459Z,99669.30
2023-07-25T07:47:26.385Z,99675.96
2023-07-25T07:49:54.298Z,99665.96
2023-07-25T07:52:32.917Z,99660.23
2023-07-25T07:55:11.579Z,99651.70
2023-07-25T07:57:44.669Z,99648.40
2023-07-25T08:00:15.121Z,99643.63
2023-07-25T08:02:44.575Z,99635.94
2023-07-25T08:05:13.619Z,99629.89
2023-07-25T08:07:41.840Z,99624.77
2023-07-25T08:10:10.332Z,99613.55
2023-07-25T08:12:39.148Z,99608.52
2023-07-25T08:15:07.746Z,99600.94
2023-07-25T08:17:35.977Z,99601.77
2023-07-25T08:20:04.344Z,99607.16
2023-07-25T08:22:32.297Z,99611.44
2023-07-25T08:25:00.464Z,99611.58
2023-07-25T08:27:28.621Z,99621.06
2023-07-25T08:29:56.647Z,99622.44
2023-07-25T08:32:26.735Z,99616.97
2023-07-25T08:34:54.956Z,99627.03
2023-07-25T08:37:24.684Z,99627.75
2023-07-25T08:39:52.652Z,99631.17
2023-07-25T08:42:22.817Z,99636.87
2023-07-25T08:44:56.127Z,99641.48
2023-07-25T08:47:29.438Z,99643.60
2023-07-25T08:49:59.365Z,99648.46
2023-07-25T08:52:32.229Z,99652.20
2023-07-25T08:55:00.830Z,99649.19
2023-07-25T08:57:29.744Z,99655.58
2023-07-25T08:59:58.832Z,99657.05
2023-07-25T09:02:27.128Z,99653.67
2023-07-25T09:04:55.738Z,99650.33
2023-07-25T09:07:23.742Z,99649.16
2023-07-25T09:09:51.948Z,99654.73
2023-07-25T09:12:20.299Z,99654.29
2023-07-25T09:14:48.480Z,99651.41
2023-07-25T09:17:16.409Z,99653.28
2023-07-25T09:19:44.615Z,99660.47
2023-07-25T09:22:46.877Z,99665.98
2023-07-25T09:25:16.527Z,99662.73
2023-07-25T09:27:47.910Z,99660.56
2023-07-25T09:30:15.904Z,99659.70
2023-07-25T09:32:48.641Z,99660.91
2023-07-25T09:35:16.903Z,99652.11
2023-07-25T09:37:53.503Z,99649.23
2023-07-25T09:40:21.611Z,99638.88
2023-07-25T09:42:52.544Z,99625.98
2023-07-25T09:45:21.143Z,99621.83
2023-07-25T09:47:51.709Z,99621.03
2023-07-25T09:50:19.649Z,99618.14
2023-07-25T09:52:47.624Z,99618.05
2023-07-25T09:55:15.556Z,99627.08
2023-07-25T09:57:43.593Z,99633.05
2023-07-25T10:00:12.194Z,99633.78
2023-07-25T10:02:40.819Z,99638.23
2023-07-25T10:05:09.541Z,99628.14
2023-07-25T10:07:39.184Z,99634.05
2023-07-25T10:10:08.777Z,99628.25
2023-07-25T10:12:36.703Z,99627.83
2023-07-25T10:15:05.680Z,99627.08
2023-07-25T10:17:33.851Z,99635.33
2023-07-25T10:20:08.974Z,99628.95
2023-07-25T10:22:41.762Z,99626.27
2023-07-25T10:25:11.925Z,99626.41
2023-07-25T10:27:40.331Z,99634.98
2023-07-25T10:30:24.876Z,99638.15
2023-07-25T10:33:00.067Z,99637.16
2023-07-25T10:35:54.444Z,99639.34
2023-07-25T10:38:41.056Z,99643.35
2023-07-25T10:41:11.933Z,99642.31
2023-07-25T10:43:45.667Z,99645.98
2023-07-25T10:46:19.200Z,99648.83
2023-07-25T10:48:51.887Z,99651.45
2023-07-25T10:51:21.289Z,99648.34
2023-07-25T10:54:10.986Z,99656.87
2023-07-25T10:56:39.870Z,99654.57
2023-07-25T10:59:12.549Z,99650.20
2023-07-25T11:01:46.339Z,99647.60
2023-07-25T11:04:26.072Z,99649.42
2023-07-25T11:06:56.706Z,99650.55
2023-07-25T11:09:26.327Z,99653.57
2023-07-25T11:11:56.086Z,99648.91
2023-07-25T11:14:24.527Z,99649.78
2023-07-25T11:16:54.124Z,99659.21
2023-07-25T11:19:28.802Z,99657.61
2023-07-25T11:21:57.145Z,99652.27
2023-07-25T11:24:25.260Z,99649.73
2023-07-25T11:26:53.157Z,99645.43
2023-07-25T11:29:21.091Z,99647.64
2023-07-25T11:31:50.832Z,99646.86
2023-07-25T11:34:21.029Z,99646.98
2023-07-25T11:36:49.055Z,99648.92
2023-07-25T11:39:17.487Z,99644.28
2023-07-25T11:41:47.212Z,99640.77
2023-07-25T11:44:18.325Z,99634.42
2023-07-25T11:46:52.150Z,99629.45
2023-07-25T11:49:40.326Z,99624.52
2023-07-25T11:52:11.278Z,99630.22
2023-07-25T11:54:39.918Z,99623.80
2023-07-25T11:57:11.337Z,99622.11
2023-07-25T11:59:43.064Z,99617.05
2023-07-25T12:02:14.285Z,99615.09
2023-07-25T12:04:45.145Z,99609.43
2023-07-25T12:07:14.694Z,99609.87
2023-07-25T12:09:56.345Z,99614.63
2023-07-25T12:12:24.469Z,99610.38
2023-07-25T12:15:03.180Z,99600.21
2023-07-25T12:17:46.737Z,99595.38
2023-07-25T12:20:23.577Z,99600.63
2023-07-25T12:23:06.777Z,99601.51
2023-07-25T12:25:37.342Z,99595.63
2023-07-25T12:28:05.458Z,99600.92
2023-07-25T12:30:33.547Z,99598.04
2023-07-25T12:33:01.685Z,99598.64
2023-07-25T12:35:29.746Z,99601.06
2023-07-25T12:37:59.020Z,99611.98
2023-07-25T12:40:27.125Z,99618.05
2023-07-25T12:42:55.137Z,99614.16
2023-07-25T12:45:23.150Z,99607.13
2023-07-25T12:47:51.238Z,99605.22
2023-07-25T12:50:19.375Z,99602.97
2023-07-25T12:52:47.476Z,99618.92
2023-07-25T12:55:15.685Z,99617.23
2023-07-25T12:57:43.699Z,99614.27
2023-07-25T13:00:12.594Z,99611.04
2023-07-25T13:02:40.752Z,99609.48
2023-07-25T13:05:09.002Z,99607.39
2023-07-25T13:07:37.223Z,99604.33
2023-07-25T13:10:07.989Z,99606.70
2023-07-25T13:12:36.278Z,99604.49
2023-07-25T13:15:06.248Z,99599.77
2023-07-25T13:17:35.609Z,99598.20
2023-07-25T13:20:08.372Z,99595.27
2023-07-25T13:22:37.321Z,99596.33
2023-07-25T13:25:05.711Z,99590.40
2023-07-25T13:27:33.934Z,99586.25
2023-07-25T13:30:01.984Z,99587.08
2023-07-25T13:32:30.108Z,99582.98
2023-07-25T13:34:58.184Z,99575.07
2023-07-25T13:37:26.317Z,99576.63
2023-07-25T13:39:54.396Z,99571.08
2023-07-25T13:42:24.136Z,99568.95
2023-07-25T13:44:52.476Z,99570.53
2023-07-25T13:47:21.712Z,99565.17
2023-07-25T13:49:50.047Z,99562.48
2023-07-25T13:52:18.075Z,99569.20
2023-07-25T13:54:46.195Z,99565.42
2023-07-25T13:57:15.182Z,99559.58
2023-07-25T13:59:43.398Z,99557.33
2023-07-25T14:02:12.520Z,99556.80
2023-07-25T14:04:40.935Z,99556.86
2023-07-25T14:07:09.593Z,99562.36
2023-07-25T14:09:37.675Z,99554.64
2023-07-25T14:12:07.055Z,99561.27
2023-07-25T14:14:35.950Z,99555.32
2023-07-25T14:17:04.837Z,99560.31
2023-07-25T14:19:32.997Z,99563.55
2023-07-25T14:22:01.611Z,99567.45
2023-07-25T14:24:29.908Z,99567.77
2023-07-25T14:26:58.560Z,99561.68
2023-07-25T14:29:26.629Z,99559.38
2023-07-25T14:31:54.644Z,99555.48
2023-07-25T14:34:25.202Z,99560.73
2023-07-25T14:36:53.300Z,99557.14
2023-07-25T14:39:21.445Z,99557.64
2023-07-25T14:41:49.373Z,99560.75
2023-07-25T14:44:17.655Z,99564.70
2023-07-25T14:46:45.710Z,99565.81
2023-07-25T14:49:13.711Z,99565.11
2023-07-25T14:51:41.900Z,99564.77
2023-07-25T14:54:09.932Z,99563.70
2023-07-25T14:56:38.131Z,99559.80
2023-07-25T14:59:06.545Z,99554.84
2023-07-25T15:01:34.981Z,99555.75
2023-07-25T15:04:03.130Z,99557.02
2023-07-25T15:06:31.906Z,99553.55
2023-07-25T15:09:00.125Z,99553.77
2023-07-25T15:11:28.670Z,99566.27
2023-07-25T15:13:56.981Z,99567.97
2023-07-25T15:16:25.131Z,99564.67
2023-07-25T15:18:53.415Z,99558.69
2023-07-25T15:21:21.565Z,99555.16
2023-07-25T15:23:49.586Z,99551.28
2023-07-25T15:26:17.594Z,99552.45
2023-07-25T15:28:46.102Z,99552.77
2023-07-25T15:31:14.159Z,99553.59
2023-07-25T15:33:42.397Z,99549.17
2023-07-25T15:36:10.427Z,99550.36
2023-07-25T15:38:38.591Z,99551.18
2023-07-25T15:41:06.502Z,99543.45
2023-07-25T15:43:34.562Z,99543.90
2023-07-25T15:46:02.502Z,99549.58
2023-07-25T15:48:30.747Z,99550.57
2023-07-25T15:50:58.784Z,99547.96
2023-07-25T15:53:26.762Z,99543.24
2023-07-25T15:55:54.793Z,99545.41
2023-07-25T15:58:22.780Z,99547.96
2023-07-25T16:00:51.110Z,99550.06
2023-07-25T16:03:19.364Z,99547.88
2023-07-25T16:05:47.618Z,99544.48
2023-07-25T16:08:15.722Z,99542.77
2023-07-25T16:10:43.904Z,99546.47
2023-07-25T16:13:11.860Z,99549.19
2023-07-25T16:15:39.763Z,99545.94
2023-07-25T16:18:07.849Z,99543.50
2023-07-25T16:20:35.965Z,99545.90
2023-07-25T16:23:04.110Z,99545.35
2023-07-25T16:25:32.106Z,99541.88
2023-07-25T16:28:00.284Z,99544.92
2023-07-25T16:30:28.502Z,99550.10
2023-07-25T16:32:56.541Z,99540.75
2023-07-25T16:35:24.631Z,99540.42
2023-07-25T16:37:52.743Z,99540.39
2023-07-25T16:40:20.914Z,99538.55
2023-07-25T16:42:49.220Z,99540.42
2023-07-25T16:45:17.342Z,99535.80
2023-07-25T16:47:45.282Z,99534.55
2023-07-25T16:50:13.390Z,99532.02
2023-07-25T16:52:41.511Z,99533.27
2023-07-25T16:55:11.005Z,99532.87
2023-07-25T16:57:39.272Z,99527.88
2023-07-25T17:00:07.833Z,99525.09
2023-07-25T17:02:36.809Z,99524.18
2023-07-25T17:05:05.527Z,99526.60
2023-07-25T17:07:33.556Z,99527.63
2023-07-25T17:10:01.598Z,99529.65
2023-07-25T17:12:29.537Z,99528.55
2023-07-25T17:14:57.626Z,99529.09
2023-07-25T17:17:27.312Z,99536.89
2023-07-25T17:19:55.456Z,99545.34
2023-07-25T17:22:24.994Z,99542.84
2023-07-25T17:24:55.249Z,99549.19
2023-07-25T17:27:24.969Z,99552.75
2023-07-25T17:29:54.429Z,99551.14
2023-07-25T17:32:22.911Z,99546.35
2023-07-25T17:34:51.128Z,99545.68
2023-07-25T17:37:19.142Z,99551.21
2023-07-25T17:39:47.321Z,99555.52
2023-07-25T17:42:15.339Z,99556.27
2023-07-25T17:44:43.440Z,99556.61
2023-07-25T17:47:11.562Z,99561.73
2023-07-25T17:49:40.415Z,99554.16
2023-07-25T17:52:10.717Z,99550.49
2023-07-25T17:54:39.088Z,99552.52
2023-07-25T17:57:07.255Z,99554.02
2023-07-25T17:59:35.731Z,99556.83
2023-07-25T18:02:03.919Z,99559.73
2023-07-25T18:04:32.171Z,99564.66
2023-07-25T18:07:00.553Z,99568.90
2023-07-25T18:09:28.615Z,99566.52
2023-07-25T18:11:56.670Z,99565.11
2023-07-25T18:14:25.151Z,99570.66
2023-07-25T18:16:53.408Z,99570.91
2023-07-25T18:19:21.471Z,99573.02
2023-07-25T18:21:51.463Z,99576.67
2023-07-25T18:24:22.041Z,99577.78
2023-07-25T18:26:51.278Z,99576.07
2023-07-25T18:29:19.695Z,99574.79
2023-07-25T18:31:47.831Z,99576.55
2023-07-25T18:34:15.948Z,99575.81
2023-07-25T18:36:44.052Z,99573.88
2023-07-25T18:39:15.062Z,99578.30
2023-07-25T18:41:43.235Z,99577.31
2023-07-25T18:44:11.755Z,99578.10
2023-07-25T18:46:39.936Z,99581.48
2023-07-25T18:49:08.073Z,99587.83
2023-07-25T18:51:36.106Z,99586.96
2023-07-25T18:54:04.158Z,99587.25
2023-07-25T18:56:32.557Z,99592.07
2023-07-25T18:59:00.975Z,99590.27
2023-07-25T19:01:29.462Z,99589.27
2023-07-25T19:03:59.546Z,99593.51
2023-07-25T19:06:28.184Z,99594.87
2023-07-25T19:08:56.291Z,99598.48
2023-07-25T19:11:24.249Z,99602.33
2023-07-25T19:13:52.297Z,99604.16
2023-07-25T19:16:20.812Z,99608.09
2023-07-25T19:18:51.493Z,99612.35
2023-07-25T19:21:19.468Z,99614.04
2023-07-25T19:23:47.570Z,99614.55
2023-07-25T19:26:15.728Z,99615.23
2023-07-25T19:28:43.779Z,99616.38
2023-07-25T19:31:12.150Z,99620.45
2023-07-25T19:33:40.165Z,99621.38
2023-07-25T19:36:08.376Z,99627.68
2023-07-25T19:38:36.648Z,99628.54
2023-07-25T19:41:04.727Z,99635.43
2023-07-25T19:43:33.470Z,99638.36
2023-07-25T19:46:05.112Z,99634.87
2023-07-25T19:48:33.541Z,99638.06
2023-07-25T19:51:11.302Z,99635.20
2023-07-25T19:53:39.777Z,99638.67
2023-07-25T19:56:09.485Z,99637.98
2023-07-25T19:58:37.585Z,99644.39
2023-07-25T20:01:10.836Z,99639.45
2023-07-25T20:03:40.273Z,99639.75
2023-07-25T20:06:09.753Z,99639.48
2023-07-25T20:08:39.489Z,99643.19
2023-07-25T20:11:08.692Z,99644.61
2023-07-25T20:13:37.420Z,99648.20
2023-07-25T20:16:05.959Z,99646.84
2023-07-25T20:18:34.191Z,99645.19
2023-07-25T20:21:09.880Z,99647.73
2023-07-25T20:23:39.407Z,99651.34
2023-07-25T20:26:07.774Z,99653.05
2023-07-25T20:28:35.741Z,99657.08
2023-07-25T20:31:04.656Z,99654.14
2023-07-25T20:33:34.166Z,99653.65
2023-07-25T20:36:03.566Z,99655.31
2023-07-25T20:38:34.975Z,99659.81
2023-07-25T20:41:03.986Z,99662.55
2023-07-25T20:43:32.140Z,99663.20
2023-07-25T20:46:04.506Z,99663.46
2023-07-25T20:48:33.196Z,99670.82
2023-07-25T20:51:02.976Z,99667.64
2023-07-25T20:53:31.004Z,99670.05
2023-07-25T20:55:59.466Z,99669.80
2023-07-25T20:58:27.434Z,99674.60
2023-07-25T21:00:55.525Z,99672.35
2023-07-25T21:03:23.822Z,99672.89
2023-07-25T21:05:52.104Z,99672.88
2023-07-25T21:08:20.366Z,99676.34
2023-07-25T21:10:50.803Z,99678.75
2023-07-25T21:13:18.870Z,99681.23
2023-07-25T21:15:50.088Z,99684.43
2023-07-25T21:18:18.368Z,99688.19
2023-07-25T21:20:46.488Z,99685.64
2023-07-25T21:23:14.609Z,99690.61
2023-07-25T21:25:43.007Z,99691.08
2023-07-25T21:28:11.055Z,99699.45
2023-07-25T21:30:39.087Z,99694.84
2023-07-25T21:33:07.359Z,99700.70
2023-07-25T21:35:36.527Z,99701.30
2023-07-25T21:38:04.628Z,99705.44
2023-07-25T21:40:32.609Z,99706.37
2023-07-25T21:43:00.696Z,99712.69
2023-07-25T21:45:28.722Z,99712.71
2023-07-25T21:47:56.898Z,99714.05
2023-07-25T21:50:25.031Z,99711.48
2023-07-25T21:52:53.088Z,99716.01
2023-07-25T21:55:21.501Z,99722.63
2023-07-25T21:57:49.521Z,99728.99
2023-07-25T22:00:17.600Z,99727.67
2023-07-25T22:02:45.584Z,99732.05
2023-07-25T22:05:13.697Z,99732.81
2023-07-25T22:07:41.752Z,99737.36
2023-07-25T22:10:10.040Z,99739.99
2023-07-25T22:12:38.226Z,99743.40
2023-07-25T22:15:08.050Z,99741.79
2023-07-25T22:17:36.210Z,99738.86
2023-07-25T22:20:04.547Z,99736.53
2023-07-25T22:22:32.650Z,99743.15
2023-07-25T22:25:01.493Z,99741.69
2023-07-25T22:27:29.662Z,99741.95
2023-07-25T22:29:57.850Z,99741.50
2023-07-25T22:32:26.106Z,99738.98
2023-07-25T22:34:54.167Z,99746.10
2023-07-25T22:37:26.156Z,99745.94
2023-07-25T22:39:54.147Z,99750.70
2023-07-25T22:42:23.655Z,99751.20
2023-07-25T22:44:51.715Z,99751.92
2023-07-25T22:47:19.738Z,99749.05
2023-07-25T22:49:52.621Z,99754.79
2023-07-25T22:52:23.492Z,99750.77
2023-07-25T22:54:51.578Z,99751.05
2023-07-25T22:57:19.648Z,99748.69
2023-07-25T22:59:47.669Z,99753.27
2023-07-25T23:02:15.772Z,99755.77
2023-07-25T23:04:44.035Z,99754.64
2023-07-25T23:07:12.025Z,99759.33
2023-07-25T23:09:40.078Z,99759.27
2023-07-25T23:12:08.505Z,99755.20
2023-07-25T23:14:37.536Z,99755.30
2023-07-25T23:17:05.927Z,99755.80
2023-07-25T23:19:33.928Z,99751.98
2023-07-25T23:22:01.905Z,99753.67
2023-07-25T23:24:29.951Z,99755.80
2023-07-25T23:26:57.924Z,99754.13
2023-07-25T23:29:25.994Z,99755.25
2023-07-25T23:31:54.080Z,99758.78
2023-07-25T23:34:22.024Z,99761.63
2023-07-25T23:36:50.051Z,99761.88
2023-07-25T23:39:18.162Z,99764.48
2023-07-25T23:41:46.307Z,99762.25
2023-07-25T23:44:14.429Z,99766.14
2023-07-25T23:46:42.484Z,99764.45
2023-07-25T23:49:10.426Z,99768.40
2023-07-25T23:51:38.519Z,99768.32
2023-07-25T23:54:06.632Z,99764.45
2023-07-25T23:56:34.701Z,99764.30
2023-07-25T23:59:03.106Z,99762.54
